createdAt,value
2018-08-27T00:01:04.966Z,17.60
2018-08-27T00:03:33.585Z,17.70
2018-08-27T00:06:02.258Z,17.70
2018-08-27T00:08:30.912Z,17.60
2018-08-27T00:10:59.494Z,17.60
2018-08-27T00:13:28.166Z,17.70
2018-08-27T00:15:56.954Z,17.50
2018-08-27T00:18:25.512Z,17.40
2018-08-27T00:20:54.122Z,17.30
2018-08-27T00:23:22.704Z,17.40
2018-08-27T00:25:51.490Z,17.40
2018-08-27T00:28:20.076Z,17.30
2018-08-27T00:30:48.689Z,17.30
2018-08-27T00:33:17.354Z,17.10
2018-08-27T00:35:45.954Z,17.00
2018-08-27T00:38:14.509Z,17.00
2018-08-27T00:40:43.103Z,16.90
2018-08-27T00:43:11.686Z,16.90
2018-08-27T00:45:40.289Z,17.10
2018-08-27T00:48:08.853Z,17.10
2018-08-27T00:50:37.424Z,16.90
2018-08-27T00:53:06.277Z,17.00
2018-08-27T00:55:34.895Z,17.00
2018-08-27T00:58:04.009Z,16.90
2018-08-27T01:00:33.037Z,17.00
2018-08-27T01:03:01.879Z,16.90
2018-08-27T01:05:30.607Z,16.80
2018-08-27T01:07:59.245Z,16.90
2018-08-27T01:10:27.846Z,16.80
2018-08-27T01:12:56.617Z,16.70
2018-08-27T01:15:25.316Z,16.70
2018-08-27T01:17:54.093Z,16.80
2018-08-27T01:20:22.724Z,16.70
2018-08-27T01:22:51.399Z,16.70
2018-08-27T01:25:20.035Z,16.60
2018-08-27T01:27:48.925Z,16.60
2018-08-27T01:30:17.625Z,16.50
2018-08-27T01:32:46.311Z,16.50
2018-08-27T01:35:14.832Z,16.60
2018-08-27T01:37:43.391Z,16.60
2018-08-27T01:40:11.937Z,16.60
2018-08-27T01:42:40.881Z,16.60
2018-08-27T01:45:09.816Z,16.60
2018-08-27T01:47:38.336Z,16.50
2018-08-27T01:50:07.423Z,16.40
2018-08-27T01:52:35.980Z,16.20
2018-08-27T01:55:04.593Z,16.20
2018-08-27T01:57:33.262Z,16.10
2018-08-27T02:00:01.873Z,16.20
2018-08-27T02:02:30.659Z,16.40
2018-08-27T02:04:59.541Z,16.40
2018-08-27T02:07:28.108Z,16.40
2018-08-27T02:12:39.785Z,16.50
2018-08-27T02:15:09.208Z,16.50
2018-08-27T02:17:37.704Z,16.50
2018-08-27T02:20:06.907Z,16.50
2018-08-27T02:22:35.447Z,16.60
2018-08-27T02:25:04.068Z,16.60
2018-08-27T02:27:32.611Z,16.50
2018-08-27T02:30:01.515Z,16.30
2018-08-27T02:32:30.200Z,16.20
2018-08-27T02:34:58.821Z,16.30
2018-08-27T02:37:27.412Z,16.20
2018-08-27T02:39:55.996Z,16.10
2018-08-27T02:42:24.531Z,16.20
2018-08-27T02:44:53.201Z,16.30
2018-08-27T02:47:21.768Z,16.40
2018-08-27T02:49:50.392Z,16.40
2018-08-27T02:52:19.121Z,16.30
2018-08-27T02:54:47.699Z,16.30
2018-08-27T02:57:16.243Z,16.10
2018-08-27T02:59:44.795Z,16.10
2018-08-27T03:02:13.354Z,16.20
2018-08-27T03:04:41.875Z,16.30
2018-08-27T03:07:10.525Z,16.20
2018-08-27T03:09:39.107Z,16.30
2018-08-27T03:12:08.163Z,16.20
2018-08-27T03:14:36.751Z,16.20
2018-08-27T03:17:05.395Z,16.10
2018-08-27T03:19:34.011Z,16.20
2018-08-27T03:22:02.565Z,16.20
2018-08-27T03:24:31.132Z,16.20
2018-08-27T03:26:59.711Z,16.30
2018-08-27T03:29:28.351Z,16.20
2018-08-27T03:31:56.940Z,16.20
2018-08-27T03:34:25.478Z,16.30
2018-08-27T03:36:55.276Z,16.30
2018-08-27T03:39:23.907Z,16.30
2018-08-27T03:41:52.500Z,16.40
2018-08-27T03:44:21.020Z,16.40
2018-08-27T03:46:49.652Z,16.40
2018-08-27T03:49:18.198Z,16.50
2018-08-27T03:51:46.817Z,16.70
2018-08-27T03:54:15.621Z,16.80
2018-08-27T03:56:44.155Z,16.70
2018-08-27T03:59:12.780Z,16.60
2018-08-27T04:01:41.325Z,16.60
2018-08-27T04:04:10.006Z,16.50
2018-08-27T04:06:38.592Z,16.50
2018-08-27T04:09:08.867Z,16.50
2018-08-27T04:11:37.511Z,16.50
2018-08-27T04:14:06.634Z,16.60
2018-08-27T04:16:35.296Z,16.60
2018-08-27T04:19:03.922Z,16.70
2018-08-27T04:21:32.560Z,16.70
2018-08-27T04:24:01.144Z,16.70
2018-08-27T04:26:29.711Z,16.70
2018-08-27T04:28:58.375Z,16.70
2018-08-27T04:31:26.926Z,16.70
2018-08-27T04:33:55.672Z,16.70
2018-08-27T04:36:24.324Z,16.70
2018-08-27T04:38:53.610Z,16.80
2018-08-27T04:41:22.358Z,16.90
2018-08-27T04:43:51.549Z,17.00
2018-08-27T04:46:20.140Z,17.00
2018-08-27T04:48:48.761Z,17.00
2018-08-27T04:51:17.652Z,16.90
2018-08-27T04:53:46.199Z,16.90
2018-08-27T04:56:15.028Z,16.90
2018-08-27T04:58:45.519Z,16.80
2018-08-27T05:01:14.264Z,16.80
2018-08-27T05:03:42.884Z,16.70
2018-08-27T05:06:11.480Z,16.80
2018-08-27T05:08:40.065Z,16.90
2018-08-27T05:11:08.648Z,16.80
2018-08-27T05:13:37.232Z,16.80
2018-08-27T05:16:05.872Z,16.80
2018-08-27T05:18:34.457Z,16.90
2018-08-27T05:21:17.616Z,16.90
2018-08-27T05:23:46.564Z,16.80
2018-08-27T05:26:15.174Z,16.70
2018-08-27T05:28:43.793Z,16.70
2018-08-27T05:31:12.415Z,16.90
2018-08-27T05:33:41.150Z,17.00
2018-08-27T05:36:09.860Z,17.00
2018-08-27T05:38:38.472Z,17.10
2018-08-27T05:41:07.057Z,17.10
2018-08-27T05:43:35.656Z,17.10
2018-08-27T05:46:04.278Z,17.20
2018-08-27T05:48:32.844Z,17.40
2018-08-27T05:51:01.361Z,17.20
2018-08-27T05:53:30.144Z,17.20
2018-08-27T05:55:58.639Z,17.30
2018-08-27T05:58:27.687Z,17.30
2018-08-27T06:00:56.294Z,17.40
2018-08-27T06:03:24.822Z,17.40
2018-08-27T06:05:53.352Z,17.40
2018-08-27T06:08:22.024Z,17.50
2018-08-27T06:10:50.551Z,17.50
2018-08-27T06:13:19.258Z,17.60
2018-08-27T06:15:47.819Z,17.60
2018-08-27T06:18:16.442Z,17.50
2018-08-27T06:20:45.071Z,17.50
2018-08-27T06:23:13.643Z,17.70
2018-08-27T06:25:42.593Z,17.70
2018-08-27T06:28:11.119Z,17.90
2018-08-27T06:30:39.746Z,18.00
2018-08-27T06:33:08.402Z,18.00
2018-08-27T06:35:36.975Z,18.10
2018-08-27T06:38:06.129Z,18.30
2018-08-27T06:40:34.625Z,18.30
2018-08-27T06:43:03.685Z,18.40
2018-08-27T06:45:32.598Z,18.50
2018-08-27T06:48:01.184Z,18.60
2018-08-27T06:50:29.739Z,18.70
2018-08-27T06:52:59.176Z,18.70
2018-08-27T06:55:27.763Z,18.60
2018-08-27T06:57:56.405Z,18.70
2018-08-27T07:00:26.146Z,18.80
2018-08-27T07:02:54.791Z,19.00
2018-08-27T07:05:23.502Z,19.10
2018-08-27T07:07:52.050Z,19.00
2018-08-27T07:10:20.617Z,18.90
2018-08-27T07:12:49.259Z,19.00
2018-08-27T07:15:17.914Z,19.20
2018-08-27T07:17:46.519Z,19.40
2018-08-27T07:20:15.217Z,19.50
2018-08-27T07:22:44.071Z,19.60
2018-08-27T07:25:13.494Z,19.80
2018-08-27T07:27:42.400Z,19.80
2018-08-27T07:30:11.143Z,19.90
2018-08-27T07:32:39.775Z,19.90
2018-08-27T07:35:08.678Z,20.10
2018-08-27T07:37:37.289Z,20.20
2018-08-27T07:40:06.258Z,20.40
2018-08-27T07:42:35.768Z,20.60
2018-08-27T07:45:05.804Z,20.70
2018-08-27T07:47:34.557Z,20.80
2018-08-27T07:50:03.194Z,20.90
2018-08-27T07:52:31.815Z,21.00
2018-08-27T07:55:00.447Z,21.00
2018-08-27T07:57:29.712Z,21.10
2018-08-27T07:59:58.383Z,21.00
2018-08-27T08:02:27.067Z,21.00
2018-08-27T08:04:55.847Z,21.10
2018-08-27T08:07:24.556Z,21.20
2018-08-27T08:09:53.582Z,21.20
2018-08-27T08:12:22.256Z,21.30
2018-08-27T08:14:52.134Z,21.30
2018-08-27T08:17:20.731Z,21.40
2018-08-27T08:19:49.380Z,21.40
2018-08-27T08:22:17.919Z,21.40
2018-08-27T08:24:46.784Z,21.50
2018-08-27T08:27:15.415Z,21.50
2018-08-27T08:29:44.452Z,21.50
2018-08-27T08:32:13.010Z,21.60
2018-08-27T08:34:41.573Z,21.60
2018-08-27T08:37:10.737Z,21.70
2018-08-27T08:39:39.341Z,21.80
2018-08-27T08:42:08.046Z,21.90
2018-08-27T08:44:36.830Z,21.90
2018-08-27T08:47:05.412Z,22.00
2018-08-27T08:49:35.024Z,22.00
2018-08-27T08:52:03.579Z,22.10
2018-08-27T08:54:32.470Z,22.10
2018-08-27T08:57:01.870Z,22.20
2018-08-27T08:59:30.459Z,22.20
2018-08-27T09:01:59.173Z,22.20
2018-08-27T09:04:28.022Z,22.30
2018-08-27T09:06:56.824Z,22.30
2018-08-27T09:09:27.607Z,22.30
2018-08-27T09:11:56.211Z,22.40
2018-08-27T09:14:24.773Z,22.40
2018-08-27T09:16:53.887Z,22.40
2018-08-27T09:19:22.694Z,22.50
2018-08-27T09:21:51.296Z,22.40
2018-08-27T09:24:20.298Z,22.50
2018-08-27T09:26:49.386Z,22.60
2018-08-27T09:29:18.570Z,22.60
2018-08-27T09:31:47.573Z,22.60
2018-08-27T09:34:16.207Z,22.80
2018-08-27T09:36:44.976Z,22.70
2018-08-27T09:39:13.628Z,22.80
2018-08-27T09:41:42.455Z,22.90
2018-08-27T09:44:11.290Z,22.90
2018-08-27T09:46:40.120Z,23.00
2018-08-27T09:49:08.830Z,23.10
2018-08-27T09:51:37.551Z,23.10
2018-08-27T09:54:06.455Z,23.10
2018-08-27T09:56:35.188Z,23.10
2018-08-27T09:59:04.598Z,23.10
2018-08-27T10:01:36.044Z,23.20
2018-08-27T10:04:05.483Z,23.20
2018-08-27T10:06:35.180Z,23.20
2018-08-27T10:09:04.558Z,23.20
2018-08-27T10:11:33.242Z,23.30
2018-08-27T10:14:01.948Z,23.30
2018-08-27T10:16:30.822Z,23.30
2018-08-27T10:18:59.480Z,23.20
2018-08-27T10:21:28.078Z,23.20
2018-08-27T10:23:57.502Z,23.20
2018-08-27T10:26:26.159Z,23.10
2018-08-27T10:28:54.876Z,23.10
2018-08-27T10:31:23.739Z,23.00
2018-08-27T10:33:52.426Z,23.10
2018-08-27T10:36:21.361Z,23.10
2018-08-27T10:38:50.042Z,23.10
2018-08-27T10:41:19.194Z,23.10
2018-08-27T10:43:48.474Z,23.10
2018-08-27T10:46:17.265Z,23.10
2018-08-27T10:48:46.033Z,23.00
2018-08-27T10:51:14.861Z,23.10
2018-08-27T10:53:43.579Z,23.10
2018-08-27T10:56:12.494Z,23.10
2018-08-27T10:58:41.159Z,23.10
2018-08-27T11:01:09.766Z,23.10
2018-08-27T11:03:38.784Z,23.20
2018-08-27T11:06:07.746Z,23.20
2018-08-27T11:08:36.411Z,23.30
2018-08-27T11:11:05.119Z,23.20
2018-08-27T11:13:33.792Z,23.30
2018-08-27T11:16:02.773Z,23.30
2018-08-27T11:18:31.692Z,23.40
2018-08-27T11:21:00.308Z,23.40
2018-08-27T11:23:28.882Z,23.50
2018-08-27T11:25:57.428Z,23.40
2018-08-27T11:28:26.117Z,23.50
2018-08-27T11:30:54.702Z,23.50
2018-08-27T11:33:23.282Z,23.60
2018-08-27T11:42:50.508Z,23.60
2018-08-27T11:45:19.136Z,23.30
2018-08-27T11:47:47.842Z,23.50
2018-08-27T11:50:16.497Z,23.70
2018-08-27T11:52:45.005Z,23.80
2018-08-27T11:55:13.818Z,23.80
2018-08-27T11:57:42.481Z,23.90
2018-08-27T12:00:15.803Z,24.00
2018-08-27T12:02:44.494Z,24.10
2018-08-27T12:05:13.070Z,24.10
2018-08-27T12:07:41.627Z,24.20
2018-08-27T12:10:10.296Z,24.20
2018-08-27T12:12:39.376Z,24.20
2018-08-27T12:15:08.552Z,24.20
2018-08-27T12:17:37.090Z,24.20
2018-08-27T12:20:06.228Z,24.20
2018-08-27T12:22:35.855Z,24.20
2018-08-27T12:25:04.628Z,24.20
2018-08-27T12:27:33.344Z,24.30
2018-08-27T12:30:02.003Z,24.30
2018-08-27T12:32:30.779Z,24.40
2018-08-27T12:34:59.993Z,24.40
2018-08-27T12:37:28.570Z,24.40
2018-08-27T12:39:57.157Z,24.40
2018-08-27T12:42:25.794Z,24.40
2018-08-27T12:44:55.165Z,24.40
2018-08-27T12:47:24.092Z,24.40
2018-08-27T12:49:53.327Z,24.50
2018-08-27T12:52:22.128Z,24.60
2018-08-27T12:54:50.915Z,24.60
2018-08-27T12:57:19.623Z,24.70
2018-08-27T12:59:48.191Z,24.70
2018-08-27T13:02:16.819Z,24.70
2018-08-27T13:04:45.505Z,24.70
2018-08-27T13:07:14.244Z,24.70
2018-08-27T13:09:42.861Z,24.70
2018-08-27T13:12:11.443Z,24.80
2018-08-27T13:14:40.152Z,24.80
2018-08-27T13:17:09.144Z,25.00
2018-08-27T13:19:37.759Z,25.10
2018-08-27T13:22:06.370Z,25.10
2018-08-27T13:24:34.960Z,25.10
2018-08-27T13:27:03.710Z,25.10
2018-08-27T13:29:32.337Z,25.10
2018-08-27T13:32:00.986Z,25.10
2018-08-27T13:34:29.447Z,25.10
2018-08-27T13:36:58.839Z,25.10
2018-08-27T13:39:27.922Z,25.00
2018-08-27T13:41:56.633Z,25.00
2018-08-27T13:44:25.568Z,25.00
2018-08-27T13:46:54.199Z,25.00
2018-08-27T13:49:22.850Z,24.90
2018-08-27T13:51:55.622Z,24.80
2018-08-27T13:54:24.234Z,24.80
2018-08-27T13:56:53.094Z,24.90
2018-08-27T13:59:21.724Z,24.90
2018-08-27T14:01:50.424Z,24.80
2018-08-27T14:04:18.960Z,24.80
2018-08-27T14:06:47.660Z,24.80
2018-08-27T14:09:16.263Z,24.70
2018-08-27T14:11:44.825Z,24.70
2018-08-27T14:14:13.432Z,24.70
2018-08-27T14:16:42.322Z,24.60
2018-08-27T14:19:11.048Z,24.60
2018-08-27T14:21:39.515Z,24.60
2018-08-27T14:24:08.089Z,24.60
2018-08-27T14:26:37.111Z,24.60
2018-08-27T14:29:05.999Z,24.50
2018-08-27T14:31:34.694Z,24.40
2018-08-27T14:34:03.905Z,24.40
2018-08-27T14:36:32.754Z,24.50
2018-08-27T14:39:02.043Z,24.50
2018-08-27T14:41:30.779Z,24.40
2018-08-27T14:43:59.273Z,24.40
2018-08-27T14:46:28.084Z,24.30
2018-08-27T14:48:56.624Z,24.30
2018-08-27T14:51:25.159Z,24.40
2018-08-27T14:53:53.801Z,24.50
2018-08-27T14:56:22.617Z,24.40
2018-08-27T14:58:51.263Z,24.40
2018-08-27T15:01:21.959Z,24.50
2018-08-27T15:03:50.583Z,24.50
2018-08-27T15:06:19.865Z,24.40
2018-08-27T15:08:48.491Z,24.50
2018-08-27T15:11:17.067Z,24.60
2018-08-27T15:13:45.975Z,24.60
2018-08-27T15:16:14.528Z,24.50
2018-08-27T15:18:43.196Z,24.50
2018-08-27T15:21:12.020Z,24.50
2018-08-27T15:23:40.733Z,24.50
2018-08-27T15:26:09.496Z,24.50
2018-08-27T15:28:38.180Z,24.50
2018-08-27T15:31:06.885Z,24.50
2018-08-27T15:33:35.461Z,24.50
2018-08-27T15:36:04.051Z,24.60
2018-08-27T15:38:32.994Z,24.60
2018-08-27T15:41:01.668Z,24.60
2018-08-27T15:43:30.638Z,24.60
2018-08-27T15:46:04.451Z,24.60
2018-08-27T15:48:33.087Z,24.60
2018-08-27T15:51:01.773Z,24.50
2018-08-27T15:53:30.387Z,24.40
2018-08-27T15:55:59.098Z,24.40
2018-08-27T15:58:27.938Z,24.40
2018-08-27T16:00:56.688Z,24.30
2018-08-27T16:03:25.349Z,24.50
2018-08-27T16:05:54.194Z,24.50
2018-08-27T16:08:23.156Z,24.60
2018-08-27T16:10:51.864Z,24.50
2018-08-27T16:13:20.612Z,24.40
2018-08-27T16:15:49.172Z,24.40
2018-08-27T16:18:18.003Z,24.50
2018-08-27T16:20:46.672Z,24.50
2018-08-27T16:23:15.457Z,24.50
2018-08-27T16:25:44.172Z,24.50
2018-08-27T16:28:13.114Z,24.50
2018-08-27T16:30:41.938Z,24.40
2018-08-27T16:33:10.616Z,24.40
2018-08-27T16:35:39.197Z,24.40
2018-08-27T16:38:08.431Z,24.50
2018-08-27T16:40:37.079Z,24.40
2018-08-27T16:43:05.744Z,24.50
2018-08-27T16:45:34.353Z,24.50
2018-08-27T16:48:03.254Z,24.40
2018-08-27T16:50:31.888Z,24.30
2018-08-27T16:53:00.584Z,24.30
2018-08-27T16:55:29.266Z,24.30
2018-08-27T16:57:58.140Z,24.20
2018-08-27T17:00:27.402Z,24.30
2018-08-27T17:02:56.042Z,24.30
2018-08-27T17:05:24.830Z,24.30
2018-08-27T17:07:53.640Z,24.30
2018-08-27T17:10:22.393Z,24.30
2018-08-27T17:12:50.987Z,24.20
2018-08-27T17:15:19.663Z,24.10
2018-08-27T17:17:48.262Z,24.10
2018-08-27T17:20:17.585Z,24.10
2018-08-27T17:22:46.502Z,24.10
2018-08-27T17:25:15.126Z,24.10
2018-08-27T17:27:43.672Z,24.00
2018-08-27T17:30:12.309Z,23.90
2018-08-27T17:32:40.818Z,23.90
2018-08-27T17:35:09.796Z,23.90
2018-08-27T17:37:38.420Z,23.90
2018-08-27T17:40:07.517Z,23.90
2018-08-27T17:42:36.440Z,23.80
2018-08-27T17:45:05.261Z,23.80
2018-08-27T17:47:34.092Z,23.80
2018-08-27T17:50:02.676Z,23.80
2018-08-27T17:52:31.367Z,23.80
2018-08-27T17:55:00.535Z,23.70
2018-08-27T17:57:29.454Z,23.70
2018-08-27T17:59:58.034Z,23.80
2018-08-27T18:02:26.693Z,23.70
2018-08-27T18:04:55.423Z,23.70
2018-08-27T18:07:29.248Z,23.70
2018-08-27T18:09:57.875Z,23.70
2018-08-27T18:12:26.606Z,23.80
2018-08-27T18:14:55.109Z,23.70
2018-08-27T18:17:25.143Z,23.70
2018-08-27T18:19:53.791Z,23.70
2018-08-27T18:22:22.429Z,23.70
2018-08-27T18:24:51.388Z,23.70
2018-08-27T18:27:19.965Z,23.80
2018-08-27T18:29:48.471Z,23.80
2018-08-27T18:32:17.035Z,23.80
2018-08-27T18:34:45.570Z,23.70
2018-08-27T18:37:14.425Z,23.70
2018-08-27T18:39:42.993Z,23.70
2018-08-27T18:42:11.515Z,23.60
2018-08-27T18:44:40.090Z,23.60
2018-08-27T18:47:09.195Z,23.70
2018-08-27T18:49:38.150Z,23.60
2018-08-27T18:52:06.768Z,23.60
2018-08-27T18:54:35.355Z,23.50
2018-08-27T18:57:04.312Z,23.50
2018-08-27T18:59:33.037Z,23.40
2018-08-27T19:02:01.641Z,23.40
2018-08-27T19:04:30.229Z,23.40
2018-08-27T19:06:58.797Z,23.40
2018-08-27T19:09:27.747Z,23.50
2018-08-27T19:11:56.329Z,23.50
2018-08-27T19:14:24.929Z,23.50
2018-08-27T19:16:53.593Z,23.50
2018-08-27T19:19:22.260Z,23.40
2018-08-27T19:21:50.868Z,23.40
2018-08-27T19:24:19.495Z,23.40
2018-08-27T19:26:48.071Z,23.30
2018-08-27T19:29:16.709Z,23.30
2018-08-27T19:31:45.308Z,23.30
2018-08-27T19:34:13.835Z,23.20
2018-08-27T19:36:42.591Z,23.20
2018-08-27T19:39:11.210Z,23.10
2018-08-27T19:41:39.830Z,23.10
2018-08-27T19:44:08.417Z,23.10
2018-08-27T19:46:37.932Z,23.10
2018-08-27T19:49:06.564Z,23.10
2018-08-27T19:51:35.145Z,23.10
2018-08-27T19:54:03.663Z,23.10
2018-08-27T19:56:32.363Z,23.10
2018-08-27T19:59:01.004Z,23.10
2018-08-27T20:01:29.884Z,23.10
2018-08-27T20:03:58.795Z,23.20
2018-08-27T20:06:27.419Z,23.20
2018-08-27T20:08:56.258Z,23.10
2018-08-27T20:11:24.837Z,23.10
2018-08-27T20:13:53.449Z,23.10
2018-08-27T20:16:22.048Z,23.10
2018-08-27T20:18:50.871Z,23.10
2018-08-27T20:21:19.508Z,23.00
2018-08-27T20:23:48.123Z,23.00
2018-08-27T20:26:16.797Z,23.00
2018-08-27T20:28:45.828Z,23.00
2018-08-27T20:31:14.405Z,23.00
2018-08-27T20:33:42.973Z,23.00
2018-08-27T20:36:11.641Z,23.00
2018-08-27T20:38:40.282Z,23.10
2018-08-27T20:41:08.913Z,23.00
2018-08-27T20:43:38.495Z,23.00
2018-08-27T20:46:07.180Z,23.00
2018-08-27T20:48:36.055Z,23.00
2018-08-27T20:51:04.685Z,22.90
2018-08-27T20:53:33.643Z,22.90
2018-08-27T20:56:02.546Z,22.90
2018-08-27T20:58:31.311Z,22.90
2018-08-27T21:01:00.510Z,22.80
2018-08-27T21:03:29.127Z,22.70
2018-08-27T21:05:57.671Z,22.70
2018-08-27T21:08:26.354Z,22.60
2018-08-27T21:10:54.912Z,22.60
2018-08-27T21:13:23.500Z,22.50
2018-08-27T21:15:52.065Z,22.60
2018-08-27T21:18:20.665Z,22.60
2018-08-27T21:20:49.384Z,22.70
2018-08-27T21:23:17.984Z,22.70
2018-08-27T21:25:46.631Z,22.60
2018-08-27T21:28:15.519Z,22.60
2018-08-27T21:30:44.297Z,22.60
2018-08-27T21:33:13.141Z,22.60
2018-08-27T21:35:41.685Z,22.50
2018-08-27T21:38:10.251Z,22.40
2018-08-27T21:40:38.850Z,22.40
2018-08-27T21:43:07.420Z,22.30
2018-08-27T21:45:36.003Z,22.30
2018-08-27T21:48:04.855Z,22.10
2018-08-27T21:50:33.533Z,22.20
2018-08-27T21:53:02.218Z,22.20
2018-08-27T21:55:30.956Z,22.30
2018-08-27T21:57:59.663Z,22.30
2018-08-27T22:00:28.272Z,22.20
2018-08-27T22:03:02.310Z,22.20
2018-08-27T22:05:30.928Z,22.30
2018-08-27T22:07:59.751Z,22.20
2018-08-27T22:10:28.294Z,22.20
2018-08-27T22:12:56.914Z,22.20
2018-08-27T22:15:25.440Z,22.20
2018-08-27T22:17:54.255Z,22.10
2018-08-27T22:20:22.753Z,22.00
2018-08-27T22:22:51.511Z,22.00
2018-08-27T22:25:19.995Z,22.00
2018-08-27T22:27:48.633Z,21.90
2018-08-27T22:30:17.209Z,21.90
2018-08-27T22:32:45.869Z,21.90
2018-08-27T22:35:14.889Z,21.90
2018-08-27T22:37:43.475Z,21.80
2018-08-27T22:40:12.081Z,21.80
2018-08-27T22:42:40.597Z,21.80
2018-08-27T22:45:09.190Z,21.80
2018-08-27T22:47:37.717Z,21.80
2018-08-27T22:50:06.602Z,21.70
2018-08-27T22:52:35.258Z,21.80
2018-08-27T22:55:03.836Z,21.80
2018-08-27T22:57:32.461Z,21.80
2018-08-27T23:00:01.530Z,21.80
2018-08-27T23:02:35.378Z,21.70
2018-08-27T23:05:03.947Z,21.70
2018-08-27T23:07:32.596Z,21.70
2018-08-27T23:10:01.195Z,21.60
2018-08-27T23:12:29.797Z,21.60
2018-08-27T23:14:58.353Z,21.60
2018-08-27T23:17:26.934Z,21.70
2018-08-27T23:19:55.606Z,21.50
2018-08-27T23:22:24.153Z,21.50
2018-08-27T23:24:52.636Z,21.50
2018-08-27T23:27:21.269Z,21.50
2018-08-27T23:29:49.751Z,21.50
2018-08-27T23:32:18.312Z,21.50
2018-08-27T23:34:46.812Z,21.40
2018-08-27T23:37:15.413Z,21.50
2018-08-27T23:39:44.214Z,21.50
2018-08-27T23:42:12.797Z,21.40
2018-08-27T23:44:41.366Z,21.40
2018-08-27T23:47:10.032Z,21.40
2018-08-27T23:49:38.540Z,21.40
2018-08-27T23:52:07.169Z,21.40
2018-08-27T23:54:35.807Z,21.40
2018-08-27T23:57:04.696Z,21.30
2018-08-27T23:59:33.355Z,21.30
